createdAt,value
2022-11-20T00:01:26.400Z,92.73
2022-11-20T00:03:56.066Z,92.86
2022-11-20T00:06:24.208Z,92.51
2022-11-20T00:08:51.838Z,92.79
2022-11-20T00:11:21.652Z,92.43
2022-11-20T00:13:52.243Z,92.64
2022-11-20T00:16:22.737Z,92.72
2022-11-20T00:18:50.355Z,92.23
2022-11-20T00:21:22.089Z,92.65
2022-11-20T00:23:50.759Z,92.49
2022-11-20T00:26:21.053Z,92.38
2022-11-20T00:28:56.753Z,92.43
2022-11-20T00:31:24.244Z,92.53
2022-11-20T00:33:51.685Z,92.66
2022-11-20T00:36:24.417Z,92.22
2022-11-20T00:38:56.222Z,92.37
2022-11-20T00:41:24.448Z,92.39
2022-11-20T00:43:54.121Z,92.17
2022-11-20T00:46:25.167Z,92.12
2022-11-20T00:48:52.113Z,92.35
2022-11-20T00:51:22.638Z,92.35
2022-11-20T00:53:49.797Z,92.40
2022-11-20T00:56:19.825Z,92.66
2022-11-20T00:58:49.592Z,92.60
2022-11-20T01:01:25.989Z,92.46
2022-11-20T01:03:55.623Z,92.74
2022-11-20T01:06:30.933Z,92.71
2022-11-20T01:09:01.373Z,92.75
2022-11-20T01:11:32.214Z,92.79
2022-11-20T01:14:01.792Z,92.81
2022-11-20T01:16:36.134Z,92.82
2022-11-20T01:19:07.452Z,92.83
2022-11-20T01:21:41.270Z,93.12
2022-11-20T01:24:12.104Z,92.90
2022-11-20T01:26:41.948Z,93.75
2022-11-20T01:29:16.479Z,93.33
2022-11-20T01:31:44.206Z,93.62
2022-11-20T01:34:16.142Z,93.64
2022-11-20T01:36:44.139Z,93.98
2022-11-20T01:39:24.615Z,94.37
2022-11-20T01:42:12.534Z,94.69
2022-11-20T01:44:58.040Z,94.98
2022-11-20T01:47:35.316Z,94.97
2022-11-20T01:50:27.614Z,95.19
2022-11-20T01:53:03.523Z,95.32
2022-11-20T01:55:36.359Z,95.63
2022-11-20T01:58:05.873Z,95.91
2022-11-20T02:00:33.435Z,95.98
2022-11-20T02:03:09.574Z,96.16
2022-11-20T02:06:17.926Z,96.49
2022-11-20T02:08:44.744Z,96.87
2022-11-20T02:11:11.585Z,96.92
2022-11-20T02:13:44.438Z,97.13
2022-11-20T02:16:26.522Z,96.75
2022-11-20T02:18:56.651Z,97.05
2022-11-20T02:21:47.953Z,97.00
2022-11-20T02:24:23.309Z,97.10
2022-11-20T02:27:14.195Z,97.17
2022-11-20T02:30:12.096Z,97.87
2022-11-20T02:32:40.522Z,98.02
2022-11-20T02:35:31.562Z,97.93
2022-11-20T02:38:02.417Z,98.05
2022-11-20T02:40:29.873Z,98.36
2022-11-20T02:42:58.460Z,98.13
2022-11-20T02:45:26.341Z,98.31
2022-11-20T02:47:53.662Z,98.83
2022-11-20T02:50:21.183Z,98.52
2022-11-20T02:52:47.937Z,99.05
2022-11-20T02:55:14.846Z,99.21
2022-11-20T02:57:41.616Z,99.19
2022-11-20T03:00:12.510Z,99.25
2022-11-20T03:02:39.520Z,99.51
2022-11-20T03:05:06.535Z,99.48
2022-11-20T03:07:33.420Z,99.56
2022-11-20T03:10:00.211Z,99.83
2022-11-20T03:12:26.969Z,99.58
2022-11-20T03:14:53.710Z,100.00
2022-11-20T03:17:21.158Z,100.00
2022-11-20T03:19:47.939Z,100.00
2022-11-20T03:22:14.725Z,99.87
2022-11-20T03:24:41.672Z,99.91
2022-11-20T03:27:08.465Z,100.00
2022-11-20T03:29:37.133Z,100.00
2022-11-20T03:32:04.005Z,100.00
2022-11-20T03:34:30.793Z,100.00
2022-11-20T03:36:57.590Z,100.00
2022-11-20T03:39:24.526Z,100.00
2022-11-20T03:41:51.750Z,100.00
2022-11-20T03:44:22.265Z,100.00
2022-11-20T03:46:49.420Z,100.00
2022-11-20T03:49:16.228Z,100.00
2022-11-20T03:51:42.962Z,100.00
2022-11-20T03:54:10.227Z,100.00
2022-11-20T03:56:40.277Z,100.00
2022-11-20T03:59:07.969Z,100.00
2022-11-20T04:01:38.634Z,100.00
2022-11-20T04:04:06.205Z,100.00
2022-11-20T04:06:38.643Z,100.00
2022-11-20T04:09:07.150Z,100.00
2022-11-20T04:11:38.459Z,100.00
2022-11-20T04:14:07.629Z,100.00
2022-11-20T04:16:37.194Z,100.00
2022-11-20T04:19:07.926Z,100.00
2022-11-20T04:21:34.822Z,100.00
2022-11-20T04:24:02.125Z,100.00
2022-11-20T04:26:30.555Z,100.00
2022-11-20T04:28:58.562Z,100.00
2022-11-20T04:31:28.543Z,100.00
2022-11-20T04:33:55.916Z,100.00
2022-11-20T04:36:28.081Z,100.00
2022-11-20T04:38:59.978Z,100.00
2022-11-20T04:41:30.558Z,100.00
2022-11-20T04:44:03.462Z,100.00
2022-11-20T04:46:40.318Z,100.00
2022-11-20T04:49:08.044Z,100.00
2022-11-20T04:51:35.262Z,100.00
2022-11-20T04:54:02.215Z,100.00
2022-11-20T04:56:29.350Z,100.00
2022-11-20T04:58:56.317Z,100.00
2022-11-20T05:01:25.947Z,100.00
2022-11-20T05:03:53.256Z,100.00
2022-11-20T05:06:22.339Z,100.00
2022-11-20T05:08:50.008Z,100.00
2022-11-20T05:11:21.359Z,100.00
2022-11-20T05:13:49.227Z,100.00
2022-11-20T05:16:24.994Z,100.00
2022-11-20T05:18:54.232Z,100.00
2022-11-20T05:21:21.780Z,100.00
2022-11-20T05:23:48.799Z,100.00
2022-11-20T05:26:22.516Z,100.00
2022-11-20T05:28:50.809Z,100.00
2022-11-20T05:31:27.535Z,100.00
2022-11-20T05:33:56.104Z,100.00
2022-11-20T05:36:22.911Z,100.00
2022-11-20T05:38:51.225Z,100.00
2022-11-20T05:41:21.259Z,100.00
2022-11-20T05:43:49.756Z,100.00
2022-11-20T05:46:26.432Z,100.00
2022-11-20T05:48:55.324Z,100.00
2022-11-20T05:51:22.421Z,100.00
2022-11-20T05:53:49.282Z,100.00
2022-11-20T05:56:21.738Z,100.00
2022-11-20T05:58:50.072Z,100.00
2022-11-20T06:01:26.122Z,100.00
2022-11-20T06:03:55.095Z,100.00
2022-11-20T06:06:22.284Z,100.00
2022-11-20T06:08:49.913Z,100.00
2022-11-20T06:11:17.979Z,100.00
2022-11-20T06:13:45.842Z,100.00
2022-11-20T06:16:15.364Z,100.00
2022-11-20T06:18:42.238Z,100.00
2022-11-20T06:21:16.499Z,100.00
2022-11-20T06:23:44.567Z,100.00
2022-11-20T06:26:17.950Z,100.00
2022-11-20T06:28:44.865Z,100.00
2022-11-20T06:31:14.538Z,100.00
2022-11-20T06:33:42.918Z,100.00
2022-11-20T06:36:13.092Z,100.00
2022-11-20T06:38:41.126Z,100.00
2022-11-20T06:41:12.698Z,100.00
2022-11-20T06:43:39.469Z,100.00
2022-11-20T06:46:06.299Z,99.57
2022-11-20T06:48:33.659Z,99.80
2022-11-20T06:51:00.437Z,100.00
2022-11-20T06:53:27.184Z,100.00
2022-11-20T06:56:01.131Z,100.00
2022-11-20T06:58:29.968Z,100.00
2022-11-20T07:01:11.759Z,100.00
2022-11-20T07:03:39.130Z,100.00
2022-11-20T07:06:07.189Z,100.00
2022-11-20T07:08:35.097Z,100.00
2022-11-20T07:11:07.915Z,100.00
2022-11-20T07:13:34.844Z,100.00
2022-11-20T07:16:06.306Z,100.00
2022-11-20T07:18:33.298Z,100.00
2022-11-20T07:21:06.330Z,100.00
2022-11-20T07:23:33.214Z,100.00
2022-11-20T07:26:08.559Z,100.00
2022-11-20T07:28:35.920Z,100.00
2022-11-20T07:31:03.480Z,100.00
2022-11-20T07:33:30.483Z,100.00
2022-11-20T07:36:00.036Z,100.00
2022-11-20T07:38:26.873Z,100.00
2022-11-20T07:40:58.804Z,100.00
2022-11-20T07:43:26.438Z,100.00
2022-11-20T07:45:53.334Z,100.00
2022-11-20T07:48:20.123Z,100.00
2022-11-20T07:50:46.929Z,100.00
2022-11-20T07:53:14.984Z,100.00
2022-11-20T07:55:41.939Z,100.00
2022-11-20T07:58:08.671Z,100.00
2022-11-20T08:00:35.630Z,100.00
2022-11-20T08:03:05.597Z,100.00
2022-11-20T08:05:32.565Z,100.00
2022-11-20T08:07:59.643Z,100.00
2022-11-20T08:10:26.679Z,100.00
2022-11-20T08:13:32.570Z,100.00
2022-11-20T08:15:59.321Z,100.00
2022-11-20T08:18:31.644Z,100.00
2022-11-20T08:21:03.263Z,100.00
2022-11-20T08:23:30.362Z,100.00
2022-11-20T08:25:57.192Z,100.00
2022-11-20T08:28:24.387Z,100.00
2022-11-20T08:30:51.617Z,100.00
2022-11-20T08:33:19.208Z,100.00
2022-11-20T08:35:46.563Z,100.00
2022-11-20T08:38:13.693Z,100.00
2022-11-20T08:40:40.459Z,100.00
2022-11-20T08:43:07.258Z,100.00
2022-11-20T08:45:35.205Z,100.00
2022-11-20T08:48:05.961Z,100.00
2022-11-20T08:50:34.150Z,100.00
2022-11-20T08:53:07.601Z,100.00
2022-11-20T08:55:36.718Z,100.00
2022-11-20T08:58:08.013Z,100.00
2022-11-20T09:00:35.747Z,100.00
2022-11-20T09:03:03.198Z,100.00
2022-11-20T09:05:30.608Z,100.00
2022-11-20T09:07:59.039Z,100.00
2022-11-20T09:10:27.100Z,100.00
2022-11-20T09:12:56.394Z,100.00
2022-11-20T09:15:24.920Z,100.00
2022-11-20T09:17:56.888Z,100.00
2022-11-20T09:20:23.725Z,100.00
2022-11-20T09:22:50.537Z,100.00
2022-11-20T09:25:17.787Z,100.00
2022-11-20T09:27:47.148Z,100.00
2022-11-20T09:30:16.037Z,100.00
2022-11-20T09:32:45.849Z,100.00
2022-11-20T09:35:12.935Z,100.00
2022-11-20T09:37:39.817Z,100.00
2022-11-20T09:40:08.467Z,100.00
2022-11-20T09:43:20.274Z,100.00
2022-11-20T09:46:30.998Z,100.00
2022-11-20T09:49:34.828Z,100.00
2022-11-20T09:52:21.823Z,100.00
2022-11-20T09:54:49.186Z,100.00
2022-11-20T09:57:22.981Z,100.00
2022-11-20T10:00:00.769Z,100.00
2022-11-20T10:02:37.605Z,100.00
2022-11-20T10:05:16.648Z,100.00
2022-11-20T10:07:56.521Z,100.00
2022-11-20T10:11:19.587Z,100.00
2022-11-20T10:14:07.466Z,100.00
2022-11-20T10:16:41.276Z,100.00
2022-11-20T10:19:37.845Z,100.00
2022-11-20T10:22:32.967Z,100.00
2022-11-20T10:25:16.955Z,100.00
2022-11-20T10:28:14.533Z,99.87
2022-11-20T10:30:47.155Z,99.94
2022-11-20T10:33:23.838Z,99.65
2022-11-20T10:36:29.628Z,98.77
2022-11-20T10:39:06.951Z,98.56
2022-11-20T10:41:40.379Z,98.32
2022-11-20T10:44:53.729Z,98.39
2022-11-20T10:47:22.725Z,97.97
2022-11-20T10:49:57.055Z,97.97
2022-11-20T10:52:45.030Z,97.66
2022-11-20T10:55:17.699Z,97.02
2022-11-20T10:58:08.245Z,97.02
2022-11-20T11:00:35.133Z,97.41
2022-11-20T11:03:04.122Z,97.17
2022-11-20T11:05:41.857Z,96.59
2022-11-20T11:08:16.562Z,96.47
2022-11-20T11:10:58.910Z,95.75
2022-11-20T11:13:26.830Z,95.73
2022-11-20T11:15:54.769Z,94.96
2022-11-20T11:18:33.158Z,94.83
2022-11-20T11:21:05.699Z,94.34
2022-11-20T11:23:35.838Z,94.15
2022-11-20T11:26:06.233Z,93.38
2022-11-20T11:28:34.672Z,93.77
2022-11-20T11:31:01.483Z,93.90
2022-11-20T11:33:37.160Z,93.80
2022-11-20T11:36:19.475Z,93.00
2022-11-20T11:38:46.327Z,92.87
2022-11-20T11:41:24.193Z,91.62
2022-11-20T11:44:17.930Z,91.29
2022-11-20T11:46:56.856Z,91.06
2022-11-20T11:49:23.936Z,91.01
2022-11-20T11:52:09.449Z,90.35
2022-11-20T11:54:43.338Z,89.13
2022-11-20T11:57:56.658Z,89.09
2022-11-20T12:00:23.996Z,89.26
2022-11-20T12:03:19.111Z,88.95
2022-11-20T12:06:10.721Z,87.33
2022-11-20T12:09:15.891Z,87.55
2022-11-20T12:11:52.560Z,87.10
2022-11-20T12:14:37.521Z,86.23
2022-11-20T12:17:04.765Z,85.12
2022-11-20T12:19:35.547Z,84.92
2022-11-20T12:22:30.144Z,85.22
2022-11-20T12:25:29.773Z,85.00
2022-11-20T12:28:02.680Z,84.28
2022-11-20T12:30:29.570Z,84.80
2022-11-20T12:33:25.604Z,84.27
2022-11-20T12:36:17.746Z,84.07
2022-11-20T12:39:17.353Z,84.07
2022-11-20T12:42:33.775Z,84.76
2022-11-20T12:45:19.147Z,84.59
2022-11-20T12:48:16.232Z,84.33
2022-11-20T12:51:20.398Z,85.04
2022-11-20T12:54:02.777Z,84.96
2022-11-20T12:56:47.547Z,85.06
2022-11-20T12:59:36.228Z,85.29
2022-11-20T13:02:18.088Z,84.80
2022-11-20T13:05:07.754Z,83.82
2022-11-20T13:07:37.639Z,84.65
2022-11-20T13:10:12.698Z,84.99
2022-11-20T13:12:51.959Z,84.85
2022-11-20T13:15:47.032Z,85.37
2022-11-20T13:18:14.901Z,85.74
2022-11-20T13:20:46.716Z,85.85
2022-11-20T13:23:28.785Z,86.17
2022-11-20T13:26:25.189Z,85.77
2022-11-20T13:29:12.466Z,86.49
2022-11-20T13:31:45.559Z,86.17
2022-11-20T13:34:27.091Z,86.00
2022-11-20T13:37:01.547Z,86.46
2022-11-20T13:39:35.624Z,86.80
2022-11-20T13:42:22.902Z,87.07
2022-11-20T13:44:56.388Z,86.72
2022-11-20T13:47:29.533Z,87.33
2022-11-20T13:50:00.451Z,87.62
2022-11-20T13:53:17.943Z,88.35
2022-11-20T13:55:57.590Z,88.95
2022-11-20T13:59:05.441Z,89.05
2022-11-20T14:01:33.881Z,89.14
2022-11-20T14:04:07.817Z,90.13
2022-11-20T14:06:43.860Z,90.34
2022-11-20T14:09:27.898Z,89.28
2022-11-20T14:11:54.769Z,89.68
2022-11-20T14:14:25.079Z,89.41
2022-11-20T14:16:53.481Z,88.92
2022-11-20T14:19:31.661Z,89.07
2022-11-20T14:22:22.928Z,89.03
2022-11-20T14:25:06.242Z,89.15
2022-11-20T14:27:41.283Z,89.66
2022-11-20T14:30:21.319Z,90.29
2022-11-20T14:32:49.415Z,90.51
2022-11-20T14:35:31.275Z,90.96
2022-11-20T14:37:58.555Z,91.25
2022-11-20T14:40:36.934Z,90.64
2022-11-20T14:43:27.923Z,90.80
2022-11-20T14:46:01.648Z,90.74
2022-11-20T14:48:46.902Z,90.13
2022-11-20T14:51:28.665Z,89.12
2022-11-20T14:53:55.421Z,89.02
2022-11-20T14:56:25.203Z,89.13
2022-11-20T14:58:59.431Z,88.57
2022-11-20T15:01:32.359Z,88.69
2022-11-20T15:04:03.297Z,88.90
2022-11-20T15:06:31.770Z,88.95
2022-11-20T15:08:59.166Z,88.71
2022-11-20T15:11:33.361Z,88.69
2022-11-20T15:14:06.491Z,88.45
2022-11-20T15:16:34.101Z,88.83
2022-11-20T15:19:03.769Z,88.81
2022-11-20T15:21:30.567Z,89.31
2022-11-20T15:23:58.414Z,89.15
2022-11-20T15:26:28.038Z,88.96
2022-11-20T15:28:56.119Z,89.19
2022-11-20T15:31:25.309Z,89.53
2022-11-20T15:33:52.478Z,89.41
2022-11-20T15:36:19.492Z,89.86
2022-11-20T15:38:46.591Z,89.96
2022-11-20T15:41:13.529Z,89.71
2022-11-20T15:43:40.326Z,89.84
2022-11-20T15:46:16.901Z,89.85
2022-11-20T15:48:48.511Z,89.33
2022-11-20T15:51:24.479Z,89.06
2022-11-20T15:53:51.396Z,89.48
2022-11-20T15:56:18.184Z,89.16
2022-11-20T15:58:44.965Z,89.31
2022-11-20T16:01:18.719Z,89.90
2022-11-20T16:03:46.114Z,90.41
2022-11-20T16:06:13.287Z,90.03
2022-11-20T16:08:40.689Z,90.29
2022-11-20T16:11:07.495Z,90.63
2022-11-20T16:13:52.850Z,90.85
2022-11-20T16:16:24.878Z,91.14
2022-11-20T16:18:51.712Z,91.19
2022-11-20T16:21:18.731Z,91.67
2022-11-20T16:23:45.577Z,91.87
2022-11-20T16:26:21.891Z,92.06
2022-11-20T16:28:48.897Z,92.38
2022-11-20T16:31:18.877Z,92.33
2022-11-20T16:33:54.247Z,92.70
2022-11-20T16:36:24.144Z,92.42
2022-11-20T16:39:00.895Z,92.70
2022-11-20T16:41:31.703Z,92.66
2022-11-20T16:44:07.582Z,92.62
2022-11-20T16:46:34.530Z,92.65
2022-11-20T16:49:04.734Z,92.63
2022-11-20T16:51:36.165Z,92.58
2022-11-20T16:54:05.495Z,92.60
2022-11-20T16:56:32.459Z,92.53
2022-11-20T16:59:00.680Z,92.65
2022-11-20T17:01:29.302Z,92.46
2022-11-20T17:04:03.614Z,93.05
2022-11-20T17:06:37.022Z,93.51
2022-11-20T17:09:04.543Z,93.63
2022-11-20T17:11:31.487Z,93.50
2022-11-20T17:14:07.651Z,93.69
2022-11-20T17:16:36.292Z,94.25
2022-11-20T17:19:05.382Z,94.31
2022-11-20T17:21:36.399Z,93.70
2022-11-20T17:24:07.842Z,93.49
2022-11-20T17:26:36.134Z,94.01
2022-11-20T17:29:15.586Z,93.59
2022-11-20T17:31:42.986Z,93.63
2022-11-20T17:34:13.511Z,93.93
2022-11-20T17:36:45.281Z,93.65
2022-11-20T17:39:14.607Z,93.48
2022-11-20T17:41:41.561Z,93.48
2022-11-20T17:44:11.933Z,93.38
2022-11-20T17:46:38.994Z,93.03
2022-11-20T17:49:06.378Z,93.13
2022-11-20T17:51:35.396Z,93.39
2022-11-20T17:54:05.664Z,93.31
2022-11-20T17:56:52.883Z,93.30
2022-11-20T17:59:20.174Z,93.17
2022-11-20T18:01:47.528Z,93.32
2022-11-20T18:04:14.426Z,93.45
2022-11-20T18:06:42.744Z,93.56
2022-11-20T18:09:10.102Z,93.41
2022-11-20T18:11:39.965Z,93.63
2022-11-20T18:14:31.468Z,93.97
2022-11-20T18:17:05.932Z,94.14
2022-11-20T18:19:41.150Z,94.21
2022-11-20T18:22:13.442Z,93.97
2022-11-20T18:24:40.419Z,94.19
2022-11-20T18:27:12.882Z,93.99
2022-11-20T18:29:39.701Z,93.84
2022-11-20T18:32:06.587Z,94.01
2022-11-20T18:34:33.483Z,93.53
2022-11-20T18:37:00.225Z,93.56
2022-11-20T18:39:27.085Z,93.67
2022-11-20T18:42:12.337Z,93.67
2022-11-20T18:44:55.103Z,94.35
2022-11-20T18:47:27.988Z,94.16
2022-11-20T18:49:57.552Z,93.95
2022-11-20T18:52:34.281Z,93.79
2022-11-20T18:55:03.266Z,93.91
2022-11-20T18:57:31.730Z,94.00
2022-11-20T19:00:03.447Z,93.67
2022-11-20T19:02:37.931Z,93.56
2022-11-20T19:05:08.886Z,93.89
2022-11-20T19:07:35.729Z,94.00
2022-11-20T19:10:04.121Z,93.95
2022-11-20T19:12:31.341Z,94.17
2022-11-20T19:14:58.373Z,93.82
2022-11-20T19:17:25.325Z,94.14
2022-11-20T19:19:55.040Z,93.89
2022-11-20T19:22:22.421Z,94.39
2022-11-20T19:24:49.636Z,94.92
2022-11-20T19:27:16.554Z,95.43
2022-11-20T19:29:43.317Z,95.10
2022-11-20T19:32:10.291Z,95.03
2022-11-20T19:34:37.153Z,94.62
2022-11-20T19:37:03.955Z,94.93
2022-11-20T19:39:30.764Z,94.78
2022-11-20T19:41:57.623Z,94.83
2022-11-20T19:44:24.367Z,94.76
2022-11-20T19:46:51.187Z,94.90
2022-11-20T19:49:18.093Z,94.73
2022-11-20T19:51:48.333Z,94.90
2022-11-20T19:54:15.771Z,94.87
2022-11-20T19:56:42.927Z,95.23
2022-11-20T19:59:09.653Z,95.35
2022-11-20T20:01:36.576Z,94.89
2022-11-20T20:04:07.240Z,95.25
2022-11-20T20:06:38.562Z,94.87
2022-11-20T20:09:09.411Z,94.88
2022-11-20T20:11:36.878Z,94.86
2022-11-20T20:14:10.788Z,94.96
2022-11-20T20:16:37.629Z,95.12
2022-11-20T20:19:05.838Z,95.43
2022-11-20T20:21:35.404Z,95.07
2022-11-20T20:24:02.753Z,95.35
2022-11-20T20:26:31.831Z,95.10
2022-11-20T20:29:00.122Z,94.89
2022-11-20T20:31:30.582Z,95.24
2022-11-20T20:33:58.136Z,95.50
2022-11-20T20:36:26.260Z,95.10
2022-11-20T20:38:55.079Z,95.49
2022-11-20T20:41:24.873Z,95.33
2022-11-20T20:44:11.378Z,95.68
2022-11-20T20:46:39.115Z,96.26
2022-11-20T20:49:06.561Z,96.44
2022-11-20T20:51:33.925Z,96.94
2022-11-20T20:54:00.731Z,97.35
2022-11-20T20:56:27.921Z,98.14
2022-11-20T20:58:54.705Z,98.65
2022-11-20T21:01:22.880Z,98.53
2022-11-20T21:03:52.205Z,98.59
2022-11-20T21:06:19.029Z,98.38
2022-11-20T21:08:46.310Z,98.22
2022-11-20T21:11:16.744Z,98.41
2022-11-20T21:13:45.756Z,98.17
2022-11-20T21:16:16.040Z,97.74
2022-11-20T21:18:42.902Z,98.36
2022-11-20T21:21:32.700Z,98.00
2022-11-20T21:23:59.558Z,98.27
2022-11-20T21:26:26.870Z,98.08
2022-11-20T21:28:53.915Z,98.33
2022-11-20T21:31:25.114Z,98.43
2022-11-20T21:33:54.427Z,98.54
2022-11-20T21:36:27.636Z,98.28
2022-11-20T21:38:56.423Z,98.18
2022-11-20T21:41:25.106Z,97.79
2022-11-20T21:44:23.626Z,97.63
2022-11-20T21:46:42.737Z,97.35
2022-11-20T21:49:10.786Z,97.27
2022-11-20T21:51:38.171Z,97.37
2022-11-20T21:54:05.258Z,97.93
2022-11-20T21:56:32.335Z,98.35
2022-11-20T21:58:59.122Z,98.50
2022-11-20T22:01:29.606Z,98.64
2022-11-20T22:03:59.615Z,99.38
2022-11-20T22:06:32.494Z,98.72
2022-11-20T22:09:00.369Z,98.40
2022-11-20T22:11:27.805Z,98.34
2022-11-20T22:14:12.971Z,98.01
2022-11-20T22:16:39.679Z,98.28
2022-11-20T22:19:07.318Z,97.80
2022-11-20T22:21:34.981Z,97.17
2022-11-20T22:24:02.245Z,96.78
2022-11-20T22:26:36.149Z,96.42
2022-11-20T22:29:06.707Z,96.22
2022-11-20T22:31:33.679Z,96.45
2022-11-20T22:34:02.652Z,96.04
2022-11-20T22:36:31.458Z,95.90
2022-11-20T22:38:58.545Z,96.07
2022-11-20T22:41:27.993Z,95.82
2022-11-20T22:44:07.462Z,96.14
2022-11-20T22:46:36.719Z,95.74
2022-11-20T22:49:08.889Z,95.73
2022-11-20T22:51:40.343Z,96.14
2022-11-20T22:54:07.868Z,96.40
2022-11-20T22:56:35.573Z,96.57
2022-11-20T22:59:02.499Z,96.31
2022-11-20T23:01:32.689Z,95.99
2022-11-20T23:04:05.992Z,95.92
2022-11-20T23:06:36.705Z,96.19
2022-11-20T23:09:08.716Z,95.93
2022-11-20T23:11:36.439Z,95.68
2022-11-20T23:14:13.210Z,95.85
2022-11-20T23:16:40.370Z,95.79
2022-11-20T23:19:10.828Z,95.82
2022-11-20T23:21:39.751Z,96.03
2022-11-20T23:24:07.782Z,95.98
2022-11-20T23:26:37.970Z,95.90
2022-11-20T23:29:05.666Z,95.94
2022-11-20T23:31:35.138Z,96.25
2022-11-20T23:34:02.355Z,95.93
2022-11-20T23:36:29.418Z,96.07
2022-11-20T23:38:56.760Z,95.83
2022-11-20T23:41:23.920Z,95.86
2022-11-20T23:43:50.693Z,95.79
2022-11-20T23:46:17.529Z,95.92
2022-11-20T23:48:45.615Z,96.07
2022-11-20T23:51:13.608Z,96.12
2022-11-20T23:53:40.773Z,96.37
2022-11-20T23:56:08.183Z,96.58
2022-11-20T23:58:38.095Z,96.50
